createdAt,value
2023-02-03T00:02:06.270Z,97641.03
2023-02-03T00:04:34.076Z,97631.97
2023-02-03T00:07:01.782Z,97640.94
2023-02-03T00:09:29.627Z,97643.63
2023-02-03T00:11:57.402Z,97643.72
2023-02-03T00:14:25.121Z,97631.88
2023-02-03T00:16:52.916Z,97643.16
2023-02-03T00:19:20.617Z,97647.41
2023-02-03T00:21:48.386Z,97646.88
2023-02-03T00:24:16.260Z,97646.38
2023-02-03T00:26:43.981Z,97672.53
2023-02-03T00:29:11.797Z,97672.88
2023-02-03T00:31:39.689Z,97674.66
2023-02-03T00:34:07.428Z,97671.72
2023-02-03T00:36:36.152Z,97684.63
2023-02-03T00:39:03.901Z,97673.47
2023-02-03T00:41:31.810Z,97674.38
2023-02-03T00:43:59.591Z,97670.94
2023-02-03T00:46:27.395Z,97672.56
2023-02-03T00:48:55.111Z,97677.41
2023-02-03T00:51:22.848Z,97666.69
2023-02-03T00:53:50.701Z,97673.47
2023-02-03T00:56:18.398Z,97673.44
2023-02-03T00:58:46.639Z,97680.94
2023-02-03T01:01:14.449Z,97674.72
2023-02-03T01:03:42.652Z,97665.13
2023-02-03T01:06:17.270Z,97681.63
2023-02-03T01:08:45.365Z,97672.78
2023-02-03T01:11:18.046Z,97662.44
2023-02-03T01:13:46.071Z,97676.91
2023-02-03T01:16:15.690Z,97682.63
2023-02-03T01:18:43.796Z,97667.31
2023-02-03T01:21:16.390Z,97665.00
2023-02-03T01:23:44.193Z,97658.06
2023-02-03T01:26:13.675Z,97670.28
2023-02-03T01:28:41.606Z,97677.00
2023-02-03T01:31:19.773Z,97678.00
2023-02-03T01:33:48.656Z,97679.34
2023-02-03T01:36:16.643Z,97675.75
2023-02-03T01:38:45.199Z,97670.44
2023-02-03T01:41:15.157Z,97682.06
2023-02-03T01:43:45.579Z,97678.53
2023-02-03T01:46:31.619Z,97681.72
2023-02-03T01:49:12.974Z,97680.97
2023-02-03T01:51:41.785Z,97672.41
2023-02-03T01:54:10.260Z,97676.56
2023-02-03T01:56:40.162Z,97681.06
2023-02-03T01:59:07.863Z,97679.94
2023-02-03T02:01:35.589Z,97688.00
2023-02-03T02:04:04.925Z,97684.00
2023-02-03T02:06:32.619Z,97692.66
2023-02-03T02:09:01.014Z,97690.91
2023-02-03T02:11:28.785Z,97695.13
2023-02-03T02:13:59.393Z,97687.47
2023-02-03T02:16:29.750Z,97694.88
2023-02-03T02:19:01.305Z,97688.00
2023-02-03T02:21:42.240Z,97702.59
2023-02-03T02:24:27.991Z,97695.69
2023-02-03T02:27:35.171Z,97699.78
2023-02-03T02:30:21.107Z,97700.47
2023-02-03T02:32:57.726Z,97706.81
2023-02-03T02:35:46.122Z,97704.66
2023-02-03T02:38:36.003Z,97710.94
2023-02-03T02:41:19.424Z,97727.19
2023-02-03T02:43:49.786Z,97710.72
2023-02-03T02:46:19.763Z,97718.56
2023-02-03T02:48:52.940Z,97711.03
2023-02-03T02:51:20.719Z,97721.59
2023-02-03T02:53:52.332Z,97724.66
2023-02-03T02:56:21.329Z,97715.72
2023-02-03T02:58:50.004Z,97717.47
2023-02-03T03:01:19.267Z,97709.31
2023-02-03T03:03:47.180Z,97704.34
2023-02-03T03:06:33.941Z,97710.34
2023-02-03T03:09:17.511Z,97712.09
2023-02-03T03:11:54.638Z,97724.06
2023-02-03T03:14:22.807Z,97718.22
2023-02-03T03:16:53.868Z,97724.63
2023-02-03T03:19:23.482Z,97737.00
2023-02-03T03:21:53.972Z,97730.69
2023-02-03T03:24:29.777Z,97728.41
2023-02-03T03:27:10.227Z,97739.19
2023-02-03T03:29:55.036Z,97747.84
2023-02-03T03:32:22.872Z,97756.06
2023-02-03T03:34:50.763Z,97756.44
2023-02-03T03:37:24.648Z,97760.50
2023-02-03T03:39:59.165Z,97769.59
2023-02-03T03:42:26.812Z,97763.59
2023-02-03T03:44:59.735Z,97760.47
2023-02-03T03:47:33.578Z,97766.66
2023-02-03T03:50:01.461Z,97767.78
2023-02-03T03:52:31.721Z,97774.66
2023-02-03T03:54:59.735Z,97761.31
2023-02-03T03:57:33.973Z,97760.03
2023-02-03T04:00:02.218Z,97772.38
2023-02-03T04:02:39.896Z,97775.59
2023-02-03T04:05:08.396Z,97762.66
2023-02-03T04:07:46.003Z,97761.22
2023-02-03T04:10:19.015Z,97759.50
2023-02-03T04:12:46.735Z,97768.94
2023-02-03T04:15:14.515Z,97774.78
2023-02-03T04:17:42.328Z,97777.22
2023-02-03T04:20:10.693Z,97777.19
2023-02-03T04:22:38.448Z,97791.72
2023-02-03T04:25:06.341Z,97796.81
2023-02-03T04:27:34.631Z,97796.31
2023-02-03T04:30:02.337Z,97791.81
2023-02-03T04:32:31.144Z,97792.09
2023-02-03T04:34:58.876Z,97797.53
2023-02-03T04:37:26.959Z,97798.06
2023-02-03T04:39:55.454Z,97793.63
2023-02-03T04:42:23.455Z,97794.66
2023-02-03T04:44:51.438Z,97802.31
2023-02-03T04:47:19.262Z,97797.53
2023-02-03T04:49:47.050Z,97808.81
2023-02-03T04:52:14.878Z,97807.72
2023-02-03T04:54:42.605Z,97808.38
2023-02-03T04:57:10.315Z,97807.53
2023-02-03T04:59:37.976Z,97813.59
2023-02-03T05:02:06.009Z,97822.50
2023-02-03T05:04:33.700Z,97829.16
2023-02-03T05:07:01.414Z,97825.84
2023-02-03T05:09:29.190Z,97828.22
2023-02-03T05:11:56.973Z,97827.41
2023-02-03T05:14:24.619Z,97829.19
2023-02-03T05:16:52.403Z,97827.88
2023-02-03T05:19:20.140Z,97826.44
2023-02-03T05:21:48.578Z,97833.78
2023-02-03T05:24:16.241Z,97826.78
2023-02-03T05:26:43.937Z,97835.66
2023-02-03T05:29:11.961Z,97829.06
2023-02-03T05:31:39.791Z,97839.94
2023-02-03T05:34:07.712Z,97838.28
2023-02-03T05:36:35.383Z,97848.81
2023-02-03T05:39:03.053Z,97853.88
2023-02-03T05:41:49.702Z,97859.06
2023-02-03T05:44:17.439Z,97864.66
2023-02-03T05:46:45.147Z,97864.63
2023-02-03T05:49:12.932Z,97877.63
2023-02-03T05:51:40.675Z,97877.56
2023-02-03T05:54:08.537Z,97881.16
2023-02-03T05:56:36.531Z,97874.47
2023-02-03T05:59:04.654Z,97881.22
2023-02-03T06:01:32.778Z,97875.06
2023-02-03T06:04:00.940Z,97883.31
2023-02-03T06:06:33.849Z,97883.03
2023-02-03T06:09:02.303Z,97881.16
2023-02-03T06:11:30.133Z,97877.72
2023-02-03T06:14:00.944Z,97886.84
2023-02-03T06:16:28.871Z,97888.63
2023-02-03T06:19:00.994Z,97895.22
2023-02-03T06:21:28.891Z,97899.66
2023-02-03T06:23:56.795Z,97906.13
2023-02-03T06:26:25.482Z,97912.28
2023-02-03T06:28:53.282Z,97912.91
2023-02-03T06:31:21.060Z,97919.47
2023-02-03T06:33:48.935Z,97927.50
2023-02-03T06:36:16.664Z,97929.91
2023-02-03T06:38:44.423Z,97929.16
2023-02-03T06:41:12.176Z,97935.09
2023-02-03T06:43:39.930Z,97948.31
2023-02-03T06:46:07.984Z,97948.22
2023-02-03T06:48:35.782Z,97944.09
2023-02-03T06:51:04.306Z,97946.63
2023-02-03T06:53:32.016Z,97953.94
2023-02-03T06:56:02.123Z,97957.63
2023-02-03T06:58:29.903Z,97957.75
2023-02-03T07:00:57.645Z,97961.53
2023-02-03T07:03:25.402Z,97967.94
2023-02-03T07:05:53.088Z,97962.66
2023-02-03T07:08:20.884Z,97960.56
2023-02-03T07:10:48.557Z,97959.09
2023-02-03T07:13:16.369Z,97953.88
2023-02-03T07:15:44.141Z,97958.94
2023-02-03T07:18:13.107Z,97960.16
2023-02-03T07:20:42.768Z,97955.69
2023-02-03T07:23:10.450Z,97963.09
2023-02-03T07:25:38.311Z,97964.72
2023-02-03T07:28:06.072Z,97969.25
2023-02-03T07:30:33.754Z,97949.25
2023-02-03T07:33:01.654Z,97969.00
2023-02-03T07:35:29.332Z,97961.53
2023-02-03T07:37:57.036Z,97960.66
2023-02-03T07:40:24.866Z,97962.81
2023-02-03T07:42:52.941Z,97966.19
2023-02-03T07:45:22.237Z,97967.41
2023-02-03T07:47:49.953Z,97968.19
2023-02-03T07:50:17.814Z,97972.63
2023-02-03T07:52:45.579Z,97969.75
2023-02-03T07:55:13.251Z,97963.75
2023-02-03T07:57:43.608Z,97968.63
2023-02-03T08:00:13.063Z,97966.59
2023-02-03T08:02:42.046Z,97965.28
2023-02-03T08:05:10.203Z,97955.09
2023-02-03T08:07:37.981Z,97959.13
2023-02-03T08:10:06.286Z,97956.00
2023-02-03T08:12:34.001Z,97958.00
2023-02-03T08:15:01.817Z,97956.38
2023-02-03T08:17:29.623Z,97956.53
2023-02-03T08:19:57.360Z,97956.09
2023-02-03T08:22:25.177Z,97966.97
2023-02-03T08:24:53.351Z,97960.06
2023-02-03T08:27:22.206Z,97955.50
2023-02-03T08:29:49.883Z,97959.00
2023-02-03T08:32:19.488Z,97951.47
2023-02-03T08:34:47.598Z,97956.38
2023-02-03T08:37:15.948Z,97955.50
2023-02-03T08:39:43.683Z,97948.44
2023-02-03T08:42:11.470Z,97960.41
2023-02-03T08:44:39.165Z,97960.09
2023-02-03T08:47:07.450Z,97953.22
2023-02-03T08:49:35.972Z,97945.69
2023-02-03T08:52:03.807Z,97952.28
2023-02-03T08:54:32.187Z,97958.13
2023-02-03T08:56:59.946Z,97950.81
2023-02-03T08:59:27.790Z,97959.84
2023-02-03T09:01:55.632Z,97958.03
2023-02-03T09:04:24.925Z,97962.66
2023-02-03T09:06:54.491Z,97960.50
2023-02-03T09:09:22.584Z,97965.69
2023-02-03T09:11:50.379Z,97970.56
2023-02-03T09:14:18.193Z,97976.78
2023-02-03T09:16:45.989Z,97983.91
2023-02-03T09:19:13.780Z,97975.75
2023-02-03T09:21:43.131Z,97975.69
2023-02-03T09:24:14.195Z,97970.31
2023-02-03T09:26:41.892Z,97971.16
2023-02-03T09:29:09.665Z,97981.34
2023-02-03T09:31:37.401Z,97981.97
2023-02-03T09:34:05.229Z,97969.25
2023-02-03T09:36:32.987Z,97961.88
2023-02-03T09:39:00.709Z,97964.06
2023-02-03T09:41:46.744Z,97957.28
2023-02-03T09:44:18.540Z,97955.28
2023-02-03T09:46:48.848Z,97943.47
2023-02-03T09:49:19.558Z,97941.13
2023-02-03T09:51:50.230Z,97929.41
2023-02-03T09:54:44.180Z,97932.38
2023-02-03T09:57:23.208Z,97937.19
2023-02-03T09:59:51.090Z,97928.94
2023-02-03T10:02:37.481Z,97939.00
2023-02-03T10:05:23.094Z,97925.56
2023-02-03T10:08:07.009Z,97921.75
2023-02-03T10:10:35.074Z,97921.56
2023-02-03T10:13:05.270Z,97918.97
2023-02-03T10:15:42.409Z,97922.81
2023-02-03T10:18:13.037Z,97917.91
2023-02-03T10:20:43.475Z,97919.00
2023-02-03T10:23:23.967Z,97924.19
2023-02-03T10:25:57.731Z,97917.41
2023-02-03T10:28:36.696Z,97913.59
2023-02-03T10:31:10.012Z,97908.13
2023-02-03T10:33:37.854Z,97904.53
2023-02-03T10:36:22.543Z,97916.97
2023-02-03T10:39:19.475Z,97902.97
2023-02-03T10:41:47.218Z,97903.31
2023-02-03T10:44:14.947Z,97896.91
2023-02-03T10:46:43.963Z,97891.53
2023-02-03T10:49:14.869Z,97901.47
2023-02-03T10:51:50.879Z,97899.50
2023-02-03T10:54:32.820Z,97900.81
2023-02-03T10:57:10.325Z,97893.56
2023-02-03T10:59:44.105Z,97890.25
2023-02-03T11:02:29.490Z,97887.13
2023-02-03T11:05:16.173Z,97877.84
2023-02-03T11:07:44.308Z,97875.31
2023-02-03T11:10:30.578Z,97866.53
2023-02-03T11:13:10.837Z,97861.41
2023-02-03T11:15:43.774Z,97867.16
2023-02-03T11:18:42.679Z,97867.50
2023-02-03T11:21:39.253Z,97854.38
2023-02-03T11:24:22.710Z,97859.63
2023-02-03T11:26:55.290Z,97852.22
2023-02-03T11:29:34.484Z,97847.94
2023-02-03T11:32:04.685Z,97839.38
2023-02-03T11:34:36.853Z,97837.50
2023-02-03T11:37:31.198Z,97851.06
2023-02-03T11:40:07.664Z,97847.97
2023-02-03T11:42:36.295Z,97836.44
2023-02-03T11:45:32.166Z,97832.09
2023-02-03T11:48:31.819Z,97832.03
2023-02-03T11:51:23.737Z,97831.69
2023-02-03T11:54:28.821Z,97836.44
2023-02-03T11:58:01.773Z,97824.81
2023-02-03T12:01:13.788Z,97827.25
2023-02-03T12:04:11.919Z,97829.91
2023-02-03T12:06:57.687Z,97819.06
2023-02-03T12:09:47.115Z,97815.88
2023-02-03T12:12:45.903Z,97819.84
2023-02-03T12:15:50.977Z,97821.69
2023-02-03T12:18:31.345Z,97816.03
2023-02-03T12:21:28.931Z,97821.88
2023-02-03T12:24:01.721Z,97814.28
2023-02-03T12:26:50.961Z,97802.72
2023-02-03T12:29:24.975Z,97811.19
2023-02-03T12:32:13.187Z,97806.72
2023-02-03T12:35:10.293Z,97805.88
2023-02-03T12:37:46.547Z,97800.22
2023-02-03T12:40:31.575Z,97796.09
2023-02-03T12:43:19.458Z,97800.34
2023-02-03T12:45:55.855Z,97798.13
2023-02-03T12:48:30.075Z,97793.78
2023-02-03T12:51:01.438Z,97800.34
2023-02-03T12:53:34.183Z,97792.81
2023-02-03T12:56:12.541Z,97785.66
2023-02-03T12:58:42.159Z,97784.19
2023-02-03T13:01:50.972Z,97782.53
2023-02-03T13:04:33.451Z,97766.47
2023-02-03T13:07:01.065Z,97762.91
2023-02-03T13:09:35.021Z,97767.25
2023-02-03T13:12:30.825Z,97766.47
2023-02-03T13:15:21.286Z,97774.16
2023-02-03T13:18:01.591Z,97765.56
2023-02-03T13:20:31.433Z,97767.69
2023-02-03T13:22:59.319Z,97763.59
2023-02-03T13:25:46.526Z,97777.50
2023-02-03T13:28:53.360Z,97772.97
2023-02-03T13:31:29.850Z,97769.88
2023-02-03T13:34:09.384Z,97755.59
2023-02-03T13:36:52.050Z,97764.09
2023-02-03T13:39:19.695Z,97769.91
2023-02-03T13:42:05.975Z,97763.88
2023-02-03T13:44:33.733Z,97773.69
2023-02-03T13:47:01.972Z,97777.56
2023-02-03T13:49:34.443Z,97778.72
2023-02-03T13:52:02.207Z,97781.63
2023-02-03T13:54:34.507Z,97780.91
2023-02-03T13:57:03.514Z,97789.13
2023-02-03T13:59:37.231Z,97780.03
2023-02-03T14:02:20.311Z,97785.59
2023-02-03T14:04:47.963Z,97785.94
2023-02-03T14:07:38.712Z,97784.00
2023-02-03T14:10:12.699Z,97792.81
2023-02-03T14:12:49.545Z,97779.34
2023-02-03T14:15:20.022Z,97782.41
2023-02-03T14:17:47.666Z,97786.69
2023-02-03T14:20:27.599Z,97784.34
2023-02-03T14:23:01.899Z,97782.16
2023-02-03T14:25:29.924Z,97778.53
2023-02-03T14:28:02.382Z,97787.31
2023-02-03T14:30:30.243Z,97788.06
2023-02-03T14:32:58.992Z,97788.59
2023-02-03T14:35:33.969Z,97793.84
2023-02-03T14:38:06.476Z,97783.03
2023-02-03T14:40:46.393Z,97790.28
2023-02-03T14:43:54.440Z,97797.03
2023-02-03T14:46:31.298Z,97799.53
2023-02-03T14:49:23.455Z,97792.16
2023-02-03T14:52:16.903Z,97804.22
2023-02-03T14:54:56.678Z,97799.66
2023-02-03T14:57:40.687Z,97797.63
2023-02-03T15:00:23.008Z,97794.38
2023-02-03T15:03:11.974Z,97800.69
2023-02-03T15:05:47.196Z,97804.81
2023-02-03T15:08:40.114Z,97789.56
2023-02-03T15:11:24.641Z,97790.50
2023-02-03T15:13:52.760Z,97781.66
2023-02-03T15:16:21.878Z,97780.44
2023-02-03T15:18:58.042Z,97778.06
2023-02-03T15:21:25.772Z,97781.09
2023-02-03T15:23:53.590Z,97779.47
2023-02-03T15:26:25.390Z,97779.50
2023-02-03T15:29:00.265Z,97785.63
2023-02-03T15:31:32.405Z,97779.56
2023-02-03T15:34:06.266Z,97779.44
2023-02-03T15:36:48.249Z,97778.00
2023-02-03T15:39:23.658Z,97765.34
2023-02-03T15:41:52.219Z,97762.03
2023-02-03T15:44:41.589Z,97753.84
2023-02-03T15:47:21.586Z,97754.94
2023-02-03T15:49:53.629Z,97747.06
2023-02-03T15:52:22.002Z,97755.88
2023-02-03T15:54:53.948Z,97756.25
2023-02-03T15:57:23.934Z,97752.03
2023-02-03T15:59:59.197Z,97758.34
2023-02-03T16:02:40.928Z,97761.47
2023-02-03T16:05:18.536Z,97750.53
2023-02-03T16:07:46.277Z,97759.44
2023-02-03T16:10:43.000Z,97754.41
2023-02-03T16:13:21.936Z,97751.81
2023-02-03T16:16:05.833Z,97748.13
2023-02-03T16:18:35.922Z,97753.28
2023-02-03T16:21:06.949Z,97735.03
2023-02-03T16:23:34.611Z,97741.78
2023-02-03T16:26:03.918Z,97734.28
2023-02-03T16:28:50.351Z,97728.94
2023-02-03T16:31:38.222Z,97724.91
2023-02-03T16:34:35.818Z,97714.44
2023-02-03T16:37:32.273Z,97714.28
2023-02-03T16:40:18.531Z,97697.75
2023-02-03T16:43:07.529Z,97708.44
2023-02-03T16:45:53.975Z,97693.03
2023-02-03T16:48:40.364Z,97694.53
2023-02-03T16:51:13.329Z,97685.69
2023-02-03T16:53:41.295Z,97680.00
2023-02-03T16:56:08.972Z,97679.94
2023-02-03T16:58:36.756Z,97664.97
2023-02-03T17:01:05.742Z,97670.41
2023-02-03T17:03:34.652Z,97662.63
2023-02-03T17:06:06.912Z,97670.31
2023-02-03T17:08:34.832Z,97654.09
2023-02-03T17:11:04.531Z,97662.13
2023-02-03T17:13:32.297Z,97665.78
2023-02-03T17:16:00.037Z,97664.09
2023-02-03T17:18:27.882Z,97655.22
2023-02-03T17:20:58.098Z,97658.06
2023-02-03T17:23:26.591Z,97650.31
2023-02-03T17:25:54.308Z,97641.78
2023-02-03T17:28:22.295Z,97638.66
2023-02-03T17:31:00.498Z,97631.81
2023-02-03T17:33:28.617Z,97630.47
2023-02-03T17:36:15.757Z,97626.25
2023-02-03T17:55:20.157Z,97602.88
2023-02-03T17:57:47.907Z,97588.88
2023-02-03T18:00:15.918Z,97581.44
2023-02-03T18:02:43.791Z,97571.47
2023-02-03T18:05:11.595Z,97572.56
2023-02-03T18:07:39.548Z,97560.66
2023-02-03T18:10:08.826Z,97564.88
2023-02-03T18:12:36.618Z,97566.41
2023-02-03T18:15:04.472Z,97563.44
2023-02-03T18:17:32.160Z,97567.19
2023-02-03T18:20:01.271Z,97559.63
2023-02-03T18:22:29.176Z,97557.47
2023-02-03T18:24:56.969Z,97558.56
2023-02-03T18:27:24.804Z,97553.44
2023-02-03T18:29:52.493Z,97550.25
2023-02-03T18:32:20.638Z,97551.00
2023-02-03T18:34:48.392Z,97550.25
2023-02-03T18:37:16.104Z,97539.03
2023-02-03T18:39:43.788Z,97543.50
2023-02-03T18:42:11.513Z,97528.56
2023-02-03T18:44:41.225Z,97538.66
2023-02-03T18:47:09.022Z,97531.53
2023-02-03T18:49:36.765Z,97526.88
2023-02-03T18:52:04.875Z,97537.94
2023-02-03T18:54:32.636Z,97540.25
2023-02-03T18:57:00.404Z,97537.09
2023-02-03T18:59:28.100Z,97535.06
2023-02-03T19:01:55.844Z,97533.28
2023-02-03T19:04:23.602Z,97536.84
2023-02-03T19:06:52.571Z,97523.88
2023-02-03T19:09:22.290Z,97527.88
2023-02-03T19:11:50.084Z,97526.25
2023-02-03T19:14:17.857Z,97530.63
2023-02-03T19:16:45.638Z,97523.63
2023-02-03T19:19:14.245Z,97519.16
2023-02-03T19:21:41.909Z,97508.09
2023-02-03T19:24:14.194Z,97499.47
2023-02-03T19:26:42.452Z,97488.00
2023-02-03T19:29:10.117Z,97491.09
2023-02-03T19:31:37.904Z,97484.44
2023-02-03T19:34:05.903Z,97479.16
2023-02-03T19:36:33.599Z,97479.84
2023-02-03T19:39:01.297Z,97482.63
2023-02-03T19:41:30.906Z,97481.69
2023-02-03T19:43:58.691Z,97481.69
2023-02-03T19:46:27.374Z,97477.03
2023-02-03T19:48:55.092Z,97464.47
2023-02-03T19:51:24.220Z,97464.66
2023-02-03T19:53:53.656Z,97467.28
2023-02-03T19:56:21.477Z,97469.88
2023-02-03T19:58:52.057Z,97468.75
2023-02-03T20:01:27.034Z,97459.25
2023-02-03T20:03:54.745Z,97454.59
2023-02-03T20:06:23.361Z,97452.72
2023-02-03T20:08:51.707Z,97461.16
2023-02-03T20:11:22.295Z,97460.28
2023-02-03T20:13:50.035Z,97454.53
2023-02-03T20:16:17.763Z,97454.22
2023-02-03T20:18:45.663Z,97450.44
2023-02-03T20:21:15.978Z,97442.75
2023-02-03T20:23:43.731Z,97445.25
2023-02-03T20:26:12.637Z,97447.31
2023-02-03T20:28:41.330Z,97440.91
2023-02-03T20:31:09.077Z,97428.50
2023-02-03T20:33:36.888Z,97427.38
2023-02-03T20:36:04.813Z,97427.25
2023-02-03T20:38:32.598Z,97421.63
2023-02-03T20:41:00.261Z,97412.38
2023-02-03T20:43:28.229Z,97414.97
2023-02-03T20:45:56.011Z,97400.34
2023-02-03T20:48:25.600Z,97400.53
2023-02-03T20:50:53.345Z,97398.69
2023-02-03T20:53:22.905Z,97397.91
2023-02-03T20:55:51.282Z,97400.28
2023-02-03T20:58:29.529Z,97400.94
2023-02-03T21:00:57.412Z,97399.16
2023-02-03T21:03:43.882Z,97389.44
2023-02-03T21:06:16.703Z,97389.59
2023-02-03T21:08:44.996Z,97389.56
2023-02-03T21:11:14.140Z,97393.72
2023-02-03T21:13:43.664Z,97384.63
2023-02-03T21:16:26.243Z,97384.34
2023-02-03T21:19:00.224Z,97379.50
2023-02-03T21:21:28.686Z,97378.94
2023-02-03T21:23:56.400Z,97375.38
2023-02-03T21:26:25.789Z,97381.88
2023-02-03T21:28:55.197Z,97395.81
2023-02-03T21:31:24.374Z,97382.06
2023-02-03T21:33:56.548Z,97380.66
2023-02-03T21:36:25.868Z,97376.03
2023-02-03T21:38:55.119Z,97371.31
2023-02-03T21:41:23.897Z,97370.66
2023-02-03T21:43:56.883Z,97368.78
2023-02-03T21:46:26.716Z,97372.03
2023-02-03T21:48:55.727Z,97379.66
2023-02-03T21:51:27.978Z,97370.47
2023-02-03T21:54:00.633Z,97366.16
2023-02-03T21:56:33.805Z,97354.81
2023-02-03T21:59:01.669Z,97352.75
2023-02-03T22:01:37.000Z,97350.44
2023-02-03T22:04:06.564Z,97350.91
2023-02-03T22:06:44.552Z,97346.03
2023-02-03T22:09:13.565Z,97339.66
2023-02-03T22:11:41.278Z,97341.47
2023-02-03T22:14:08.976Z,97350.44
2023-02-03T22:16:36.745Z,97341.38
2023-02-03T22:19:04.543Z,97341.47
2023-02-03T22:21:32.342Z,97333.69
2023-02-03T22:24:00.105Z,97342.88
2023-02-03T22:26:27.851Z,97340.13
2023-02-03T22:28:55.629Z,97335.72
2023-02-03T22:31:23.693Z,97333.91
2023-02-03T22:33:51.512Z,97341.75
2023-02-03T22:36:19.253Z,97330.88
2023-02-03T22:38:46.976Z,97331.44
2023-02-03T22:41:14.728Z,97319.66
2023-02-03T22:43:42.872Z,97316.75
2023-02-03T22:46:10.627Z,97315.03
2023-02-03T22:48:38.500Z,97311.09
2023-02-03T22:51:06.355Z,97297.91
2023-02-03T22:53:34.830Z,97296.78
2023-02-03T22:56:02.577Z,97294.19
2023-02-03T22:58:30.393Z,97292.38
2023-02-03T23:00:58.088Z,97279.66
2023-02-03T23:03:25.897Z,97290.97
2023-02-03T23:05:53.880Z,97277.13
2023-02-03T23:08:21.665Z,97263.75
2023-02-03T23:10:49.330Z,97264.16
2023-02-03T23:13:17.082Z,97257.63
2023-02-03T23:15:44.845Z,97250.47
2023-02-03T23:18:12.645Z,97243.03
2023-02-03T23:20:40.308Z,97231.63
2023-02-03T23:23:08.117Z,97227.56
2023-02-03T23:25:35.864Z,97226.16
2023-02-03T23:28:03.844Z,97228.09
2023-02-03T23:30:31.801Z,97215.38
2023-02-03T23:32:59.654Z,97215.00
2023-02-03T23:35:45.656Z,97202.53
2023-02-03T23:38:14.417Z,97211.84
2023-02-03T23:40:42.305Z,97193.75
2023-02-03T23:43:10.109Z,97197.56
2023-02-03T23:45:37.812Z,97186.41
2023-02-03T23:48:05.769Z,97189.06
2023-02-03T23:50:33.771Z,97173.09
2023-02-03T23:53:01.545Z,97177.44
2023-02-03T23:55:30.596Z,97156.81
2023-02-03T23:57:58.358Z,97154.66
